sensor_id;sensor_type;location;lat;lon;timestamp;pressure;altitude;pressure_sealevel;temperature;humidity
79540;BME280;74475;52.122;5.406;2023-12-29T10:58:36;100738.91;;;20.05;58.43
79540;BME280;74475;52.122;5.406;2023-12-29T11:01:13;100750.53;;;20.07;58.23
79540;BME280;74475;52.122;5.406;2023-12-29T11:03:40;100751.53;;;20.06;58.52
79540;BME280;74475;52.122;5.406;2023-12-29T11:06:07;100757.84;;;20.06;58.19
79540;BME280;74475;52.122;5.406;2023-12-29T11:08:35;100751.41;;;20.07;58.36
79540;BME280;74475;52.122;5.406;2023-12-29T11:11:03;100746.53;;;20.11;58.48
79540;BME280;74475;52.122;5.406;2023-12-29T11:13:30;100758.16;;;20.13;58.32
79540;BME280;74475;52.122;5.406;2023-12-29T11:15:57;100758.91;;;20.15;58.29
79540;BME280;74475;52.122;5.406;2023-12-29T11:18:24;100751.41;;;20.17;58.13
79540;BME280;74475;52.122;5.406;2023-12-29T11:20:51;100765.81;;;20.19;58.04
79540;BME280;74475;52.122;5.406;2023-12-29T11:23:19;100773.72;;;20.22;57.96
79540;BME280;74475;52.122;5.406;2023-12-29T11:25:46;100766.25;;;20.24;58.15
79540;BME280;74475;52.122;5.406;2023-12-29T11:28:13;100766.84;;;20.27;58.60
79540;BME280;74475;52.122;5.406;2023-12-29T11:30:40;100771.03;;;20.31;58.28
79540;BME280;74475;52.122;5.406;2023-12-29T11:33:16;100765.28;;;20.34;58.16
79540;BME280;74475;52.122;5.406;2023-12-29T11:35:51;100754.94;;;20.38;58.32
79540;BME280;74475;52.122;5.406;2023-12-29T11:39:06;100753.66;;;20.42;57.88
79540;BME280;74475;52.122;5.406;2023-12-29T11:44:28;100768.47;;;20.49;58.14
79540;BME280;74475;52.122;5.406;2023-12-29T11:46:56;100759.88;;;20.54;58.03
79540;BME280;74475;52.122;5.406;2023-12-29T11:50:01;100760.72;;;20.54;57.78
79540;BME280;74475;52.122;5.406;2023-12-29T11:52:33;100762.16;;;20.58;58.11
79540;BME280;74475;52.122;5.406;2023-12-29T11:55:09;100756.13;;;20.64;58.28
79540;BME280;74475;52.122;5.406;2023-12-29T11:57:36;100755.84;;;20.67;58.44
79540;BME280;74475;52.122;5.406;2023-12-29T12:00:05;100754.56;;;20.71;58.49
79540;BME280;74475;52.122;5.406;2023-12-29T12:02:32;100755.25;;;20.73;58.93
79540;BME280;74475;52.122;5.406;2023-12-29T12:04:59;100752.22;;;20.76;59.13
79540;BME280;74475;52.122;5.406;2023-12-29T12:09:52;100759.13;;;20.80;58.89
79540;BME280;74475;52.122;5.406;2023-12-29T12:12:39;100763.47;;;20.83;58.93
79540;BME280;74475;52.122;5.406;2023-12-29T12:17:56;100763.88;;;20.88;58.78
79540;BME280;74475;52.122;5.406;2023-12-29T12:20:23;100759.00;;;20.92;58.89
79540;BME280;74475;52.122;5.406;2023-12-29T12:23:01;100759.88;;;20.92;58.43
79540;BME280;74475;52.122;5.406;2023-12-29T12:25:30;100755.25;;;20.93;58.50
79540;BME280;74475;52.122;5.406;2023-12-29T12:28:01;100745.03;;;20.95;58.25
79540;BME280;74475;52.122;5.406;2023-12-29T12:30:31;100744.91;;;20.96;58.42
79540;BME280;74475;52.122;5.406;2023-12-29T12:33:01;100748.50;;;20.97;58.33
79540;BME280;74475;52.122;5.406;2023-12-29T12:35:30;100751.25;;;20.97;58.39
79540;BME280;74475;52.122;5.406;2023-12-29T12:38:10;100749.38;;;20.97;58.60
79540;BME280;74475;52.122;5.406;2023-12-29T12:40:37;100744.59;;;20.99;58.25
79540;BME280;74475;52.122;5.406;2023-12-29T12:43:04;100740.00;;;21.00;58.58
79540;BME280;74475;52.122;5.406;2023-12-29T12:45:41;100747.22;;;21.01;58.35
79540;BME280;74475;52.122;5.406;2023-12-29T12:48:21;100744.47;;;21.01;58.40
79540;BME280;74475;52.122;5.406;2023-12-29T12:50:49;100743.44;;;21.02;58.46
79540;BME280;74475;52.122;5.406;2023-12-29T12:53:15;100739.72;;;21.03;58.76
79540;BME280;74475;52.122;5.406;2023-12-29T12:55:51;100742.44;;;21.03;58.22
79540;BME280;74475;52.122;5.406;2023-12-29T12:58:19;100739.72;;;21.03;57.94
79540;BME280;74475;52.122;5.406;2023-12-29T13:00:49;100735.97;;;21.04;58.13
79540;BME280;74475;52.122;5.406;2023-12-29T13:03:20;100731.50;;;21.03;57.83
79540;BME280;74475;52.122;5.406;2023-12-29T13:05:47;100732.22;;;21.05;58.08
79540;BME280;74475;52.122;5.406;2023-12-29T13:08:14;100734.94;;;21.05;57.75
79540;BME280;74475;52.122;5.406;2023-12-29T13:10:49;100739.41;;;21.06;57.92
79540;BME280;74475;52.122;5.406;2023-12-29T13:13:15;100743.88;;;21.07;58.35
79540;BME280;74475;52.122;5.406;2023-12-29T13:15:46;100742.88;;;21.08;57.90
79540;BME280;74475;52.122;5.406;2023-12-29T13:18:14;100734.53;;;21.09;58.55
79540;BME280;74475;52.122;5.406;2023-12-29T13:20:47;100730.91;;;21.09;58.72
79540;BME280;74475;52.122;5.406;2023-12-29T13:23:14;100728.19;;;21.09;58.63
79540;BME280;74475;52.122;5.406;2023-12-29T13:25:43;100737.16;;;21.11;59.15
79540;BME280;74475;52.122;5.406;2023-12-29T13:28:10;100751.53;;;21.13;59.25
79540;BME280;74475;52.122;5.406;2023-12-29T13:30:37;100749.66;;;21.13;59.31
79540;BME280;74475;52.122;5.406;2023-12-29T13:33:10;100748.78;;;21.13;59.83
79540;BME280;74475;52.122;5.406;2023-12-29T13:35:47;100738.72;;;21.13;59.70
79540;BME280;74475;52.122;5.406;2023-12-29T13:38:33;100735.13;;;21.13;59.76
79540;BME280;74475;52.122;5.406;2023-12-29T13:41:13;100735.13;;;21.13;59.81
79540;BME280;74475;52.122;5.406;2023-12-29T13:43:43;100738.84;;;21.12;59.46
79540;BME280;74475;52.122;5.406;2023-12-29T13:46:12;100715.28;;;21.11;59.28
79540;BME280;74475;52.122;5.406;2023-12-29T13:48:42;100700.75;;;21.10;59.19
79540;BME280;74475;52.122;5.406;2023-12-29T13:51:10;100707.34;;;21.08;58.69
79540;BME280;74475;52.122;5.406;2023-12-29T13:53:38;100702.72;;;21.08;59.38
79540;BME280;74475;52.122;5.406;2023-12-29T13:56:08;100710.91;;;21.08;59.28
79540;BME280;74475;52.122;5.406;2023-12-29T13:58:36;100697.09;;;21.10;59.39
79540;BME280;74475;52.122;5.406;2023-12-29T14:01:10;100687.06;;;21.10;59.06
79540;BME280;74475;52.122;5.406;2023-12-29T14:03:46;100691.78;;;21.08;59.24
79540;BME280;74475;52.122;5.406;2023-12-29T14:06:20;100695.69;;;21.06;58.97
79540;BME280;74475;52.122;5.406;2023-12-29T14:08:47;100704.88;;;21.05;59.19
79540;BME280;74475;52.122;5.406;2023-12-29T14:11:14;100706.78;;;21.04;59.20
79540;BME280;74475;52.122;5.406;2023-12-29T14:13:41;100704.88;;;21.05;59.15
79540;BME280;74475;52.122;5.406;2023-12-29T14:16:08;100714.81;;;21.06;59.52
79540;BME280;74475;52.122;5.406;2023-12-29T14:26:25;100712.06;;;21.06;59.16
79540;BME280;74475;52.122;5.406;2023-12-29T14:29:05;100702.88;;;21.07;59.24
79540;BME280;74475;52.122;5.406;2023-12-29T14:31:36;100702.00;;;21.06;59.11
79540;BME280;74475;52.122;5.406;2023-12-29T14:34:04;100694.50;;;21.08;59.31
79540;BME280;74475;52.122;5.406;2023-12-29T14:36:32;100699.28;;;21.06;59.17
79540;BME280;74475;52.122;5.406;2023-12-29T14:38:59;100692.81;;;21.07;58.78
79540;BME280;74475;52.122;5.406;2023-12-29T14:41:26;100696.41;;;21.08;59.18
79540;BME280;74475;52.122;5.406;2023-12-29T14:43:53;100693.69;;;21.08;58.88
79540;BME280;74475;52.122;5.406;2023-12-29T14:46:19;100690.22;;;21.06;59.04
79540;BME280;74475;52.122;5.406;2023-12-29T14:48:48;100683.88;;;21.05;59.08
79540;BME280;74475;52.122;5.406;2023-12-29T14:51:15;100685.75;;;21.05;59.13
79540;BME280;74475;52.122;5.406;2023-12-29T14:53:47;100687.66;;;21.04;59.25
79540;BME280;74475;52.122;5.406;2023-12-29T14:56:14;100690.38;;;21.04;59.09
79540;BME280;74475;52.122;5.406;2023-12-29T14:58:42;100685.91;;;21.03;58.91
79540;BME280;74475;52.122;5.406;2023-12-29T15:01:09;100684.03;;;21.04;59.34
79540;BME280;74475;52.122;5.406;2023-12-29T15:03:37;100670.38;;;21.04;59.09
79540;BME280;74475;52.122;5.406;2023-12-29T15:06:04;100676.72;;;21.04;58.84
79540;BME280;74475;52.122;5.406;2023-12-29T15:08:31;100675.84;;;21.04;59.22
79540;BME280;74475;52.122;5.406;2023-12-29T15:11:05;100670.38;;;21.04;58.77
79540;BME280;74475;52.122;5.406;2023-12-29T15:13:32;100664.03;;;21.03;59.04
79540;BME280;74475;52.122;5.406;2023-12-29T15:15:59;100672.94;;;21.05;58.93
79540;BME280;74475;52.122;5.406;2023-12-29T15:18:27;100671.06;;;21.06;59.00
79540;BME280;74475;52.122;5.406;2023-12-29T15:20:54;100673.81;;;21.06;59.26
79540;BME280;74475;52.122;5.406;2023-12-29T15:23:21;100670.06;;;21.07;59.76
79540;BME280;74475;52.122;5.406;2023-12-29T15:25:49;100660.00;;;21.07;59.63
79540;BME280;74475;52.122;5.406;2023-12-29T15:28:17;100650.94;;;21.07;59.16
79540;BME280;74475;52.122;5.406;2023-12-29T15:30:45;100653.66;;;21.07;59.16
79540;BME280;74475;52.122;5.406;2023-12-29T15:33:12;100657.09;;;21.09;59.74
79540;BME280;74475;52.122;5.406;2023-12-29T15:35:40;100655.25;;;21.09;59.50
79540;BME280;74475;52.122;5.406;2023-12-29T15:38:08;100649.66;;;21.11;59.83
79540;BME280;74475;52.122;5.406;2023-12-29T15:40:34;100651.38;;;21.12;59.70
79540;BME280;74475;52.122;5.406;2023-12-29T15:43:01;100631.22;;;21.13;59.45
79540;BME280;74475;52.122;5.406;2023-12-29T15:45:30;100635.69;;;21.14;59.89
79540;BME280;74475;52.122;5.406;2023-12-29T15:47:57;100636.56;;;21.14;59.44
79540;BME280;74475;52.122;5.406;2023-12-29T15:50:24;100637.44;;;21.15;59.72
79540;BME280;74475;52.122;5.406;2023-12-29T15:52:51;100627.31;;;21.15;59.93
79540;BME280;74475;52.122;5.406;2023-12-29T15:55:18;100625.47;;;21.16;59.76
79540;BME280;74475;52.122;5.406;2023-12-29T15:57:45;100623.59;;;21.16;59.36
79540;BME280;74475;52.122;5.406;2023-12-29T16:00:12;100615.38;;;21.16;59.91
79540;BME280;74475;52.122;5.406;2023-12-29T16:02:39;100606.31;;;21.16;59.82
79540;BME280;74475;52.122;5.406;2023-12-29T16:05:06;100610.09;;;21.15;60.00
79540;BME280;74475;52.122;5.406;2023-12-29T16:07:33;100596.56;;;21.13;59.88
79540;BME280;74475;52.122;5.406;2023-12-29T16:09:59;100585.75;;;21.12;59.56
79540;BME280;74475;52.122;5.406;2023-12-29T16:12:26;100580.47;;;21.10;59.31
79540;BME280;74475;52.122;5.406;2023-12-29T16:14:52;100575.84;;;21.11;59.79
79540;BME280;74475;52.122;5.406;2023-12-29T16:17:19;100572.25;;;21.10;59.21
79540;BME280;74475;52.122;5.406;2023-12-29T16:19:45;100571.34;;;21.10;59.31
79540;BME280;74475;52.122;5.406;2023-12-29T16:22:13;100575.84;;;21.11;59.30
79540;BME280;74475;52.122;5.406;2023-12-29T16:24:40;100579.47;;;21.11;59.67
79540;BME280;74475;52.122;5.406;2023-12-29T16:27:07;100584.94;;;21.11;59.40
79540;BME280;74475;52.122;5.406;2023-12-29T16:29:33;100589.53;;;21.11;59.26
79540;BME280;74475;52.122;5.406;2023-12-29T16:32:00;100586.78;;;21.11;59.63
79540;BME280;74475;52.122;5.406;2023-12-29T16:34:26;100590.94;;;21.15;59.56
79540;BME280;74475;52.122;5.406;2023-12-29T16:36:58;100594.69;;;21.14;58.95
79540;BME280;74475;52.122;5.406;2023-12-29T16:39:25;100597.56;;;21.12;59.21
79540;BME280;74475;52.122;5.406;2023-12-29T16:41:52;100585.75;;;21.12;59.08
79540;BME280;74475;52.122;5.406;2023-12-29T16:44:18;100584.06;;;21.11;59.61
79540;BME280;74475;52.122;5.406;2023-12-29T16:46:45;100586.63;;;21.12;59.18
79540;BME280;74475;52.122;5.406;2023-12-29T16:49:12;100585.75;;;21.12;59.21
79540;BME280;74475;52.122;5.406;2023-12-29T16:51:39;100687.94;;;21.11;59.11
79540;BME280;74475;52.122;5.406;2023-12-29T16:54:09;100715.28;;;21.11;59.25
79540;BME280;74475;52.122;5.406;2023-12-29T16:56:35;100725.19;;;21.12;58.84
79540;BME280;74475;52.122;5.406;2023-12-29T16:59:02;100744.31;;;21.12;58.66
79540;BME280;74475;52.122;5.406;2023-12-29T17:01:29;100749.06;;;21.10;58.94
79540;BME280;74475;52.122;5.406;2023-12-29T17:03:56;100725.34;;;21.10;58.94
79540;BME280;74475;52.122;5.406;2023-12-29T17:06:23;100721.72;;;21.10;58.80
79540;BME280;74475;52.122;5.406;2023-12-29T17:08:50;100717.25;;;21.09;59.19
79540;BME280;74475;52.122;5.406;2023-12-29T17:11:17;100703.75;;;21.07;59.05
79540;BME280;74475;52.122;5.406;2023-12-29T17:13:43;100707.34;;;21.08;59.42
79540;BME280;74475;52.122;5.406;2023-12-29T17:16:10;100699.28;;;21.06;59.02
79540;BME280;74475;52.122;5.406;2023-12-29T17:18:39;100698.41;;;21.06;58.61
79540;BME280;74475;52.122;5.406;2023-12-29T17:21:06;100701.16;;;21.06;59.59
79540;BME280;74475;52.122;5.406;2023-12-29T17:23:32;100698.28;;;21.07;59.32
79540;BME280;74475;52.122;5.406;2023-12-29T17:25:59;100693.94;;;21.05;59.06
79540;BME280;74475;52.122;5.406;2023-12-29T17:28:25;100699.56;;;21.03;58.72
79540;BME280;74475;52.122;5.406;2023-12-29T17:30:52;100701.56;;;21.01;58.83
79540;BME280;74475;52.122;5.406;2023-12-29T17:33:19;100693.53;;;21.00;59.00
79540;BME280;74475;52.122;5.406;2023-12-29T17:35:46;100693.69;;;20.98;58.90
79540;BME280;74475;52.122;5.406;2023-12-29T17:38:12;100702.91;;;20.97;59.34
79540;BME280;74475;52.122;5.406;2023-12-29T17:40:39;100701.31;;;20.95;58.89
79540;BME280;74475;52.122;5.406;2023-12-29T17:43:05;100698.56;;;20.95;59.37
79540;BME280;74475;52.122;5.406;2023-12-29T17:45:32;100704.19;;;20.93;58.76
79540;BME280;74475;52.122;5.406;2023-12-29T17:47:59;100706.06;;;20.93;58.75
79540;BME280;74475;52.122;5.406;2023-12-29T17:50:27;100700.72;;;20.91;58.88
79540;BME280;74475;52.122;5.406;2023-12-29T17:52:54;100707.38;;;20.89;59.08
79540;BME280;74475;52.122;5.406;2023-12-29T17:55:20;100695.56;;;20.88;58.93
79540;BME280;74475;52.122;5.406;2023-12-29T17:57:47;100695.44;;;20.90;59.01
79540;BME280;74475;52.122;5.406;2023-12-29T18:00:14;100706.38;;;20.90;59.05
79540;BME280;74475;52.122;5.406;2023-12-29T18:02:40;100715.56;;;20.89;59.03
79540;BME280;74475;52.122;5.406;2023-12-29T18:05:07;100724.63;;;20.89;58.83
79540;BME280;74475;52.122;5.406;2023-12-29T18:07:33;100733.69;;;20.90;59.38
79540;BME280;74475;52.122;5.406;2023-12-29T18:10:00;100764.75;;;20.89;59.03
79540;BME280;74475;52.122;5.406;2023-12-29T18:12:27;100776.56;;;20.89;59.03
79540;BME280;74475;52.122;5.406;2023-12-29T18:14:54;100769.53;;;20.87;59.35
79540;BME280;74475;52.122;5.406;2023-12-29T18:17:21;100769.53;;;20.87;58.91
79540;BME280;74475;52.122;5.406;2023-12-29T18:19:49;100774.25;;;20.84;59.32
79540;BME280;74475;52.122;5.406;2023-12-29T18:22:16;100766.03;;;20.84;58.99
79540;BME280;74475;52.122;5.406;2023-12-29T18:24:44;100759.88;;;20.82;59.40
79540;BME280;74475;52.122;5.406;2023-12-29T18:27:10;100767.34;;;20.80;59.44
79540;BME280;74475;52.122;5.406;2023-12-29T18:29:37;100770.22;;;20.79;59.14
79540;BME280;74475;52.122;5.406;2023-12-29T18:32:04;100774.81;;;20.78;59.45
79540;BME280;74475;52.122;5.406;2023-12-29T18:34:47;100777.69;;;20.77;58.43
79540;BME280;74475;52.122;5.406;2023-12-29T18:37:13;100783.16;;;20.77;58.68
79540;BME280;74475;52.122;5.406;2023-12-29T18:39:41;100779.56;;;20.76;58.59
79540;BME280;74475;52.122;5.406;2023-12-29T18:42:08;100793.22;;;20.76;59.13
79540;BME280;74475;52.122;5.406;2023-12-29T18:44:38;100785.03;;;20.76;59.02
79540;BME280;74475;52.122;5.406;2023-12-29T18:47:05;100792.38;;;20.76;59.18
79540;BME280;74475;52.122;5.406;2023-12-29T18:49:32;100785.03;;;20.76;59.20
79540;BME280;74475;52.122;5.406;2023-12-29T18:51:59;100787.06;;;20.74;58.91
79540;BME280;74475;52.122;5.406;2023-12-29T18:54:25;100780.59;;;20.75;59.16
79540;BME280;74475;52.122;5.406;2023-12-29T18:56:54;100772.53;;;20.74;58.94
79540;BME280;74475;52.122;5.406;2023-12-29T18:59:21;100771.66;;;20.73;59.10
79540;BME280;74475;52.122;5.406;2023-12-29T19:01:48;100771.66;;;20.73;59.18
79540;BME280;74475;52.122;5.406;2023-12-29T19:04:17;100775.41;;;20.72;59.37
79540;BME280;74475;52.122;5.406;2023-12-29T19:06:44;100772.81;;;20.71;59.13
79540;BME280;74475;52.122;5.406;2023-12-29T19:09:10;100778.41;;;20.69;59.64
79540;BME280;74475;52.122;5.406;2023-12-29T19:11:38;100778.41;;;20.69;59.52
79540;BME280;74475;52.122;5.406;2023-12-29T19:14:04;100778.56;;;20.68;59.59
79540;BME280;74475;52.122;5.406;2023-12-29T19:16:31;100769.78;;;20.64;59.46
79540;BME280;74475;52.122;5.406;2023-12-29T19:18:58;100771.66;;;20.64;59.64
79540;BME280;74475;52.122;5.406;2023-12-29T19:21:26;100775.53;;;20.61;59.61
79540;BME280;74475;52.122;5.406;2023-12-29T19:23:54;100783.16;;;20.58;59.61
79540;BME280;74475;52.122;5.406;2023-12-29T19:26:23;100793.34;;;20.56;59.80
79540;BME280;74475;52.122;5.406;2023-12-29T19:28:50;100791.78;;;20.53;60.00
79540;BME280;74475;52.122;5.406;2023-12-29T19:31:18;100788.31;;;20.51;60.19
79540;BME280;74475;52.122;5.406;2023-12-29T19:33:46;100790.31;;;20.49;59.69
79540;BME280;74475;52.122;5.406;2023-12-29T19:36:13;100795.91;;;20.48;60.02
79540;BME280;74475;52.122;5.406;2023-12-29T19:38:42;100804.38;;;20.45;59.96
79540;BME280;74475;52.122;5.406;2023-12-29T19:41:12;100796.38;;;20.43;60.12
79540;BME280;74475;52.122;5.406;2023-12-29T19:43:40;100803.81;;;20.41;59.73
79540;BME280;74475;52.122;5.406;2023-12-29T19:46:07;100796.66;;;20.40;60.05
79540;BME280;74475;52.122;5.406;2023-12-29T19:48:34;100789.44;;;20.39;60.40
79540;BME280;74475;52.122;5.406;2023-12-29T19:51:01;100789.56;;;20.38;60.06
79540;BME280;74475;52.122;5.406;2023-12-29T19:53:29;100792.47;;;20.36;60.09
79540;BME280;74475;52.122;5.406;2023-12-29T19:55:55;100786.25;;;20.34;60.20
79540;BME280;74475;52.122;5.406;2023-12-29T19:58:24;100779.09;;;20.33;60.08
79540;BME280;74475;52.122;5.406;2023-12-29T20:00:54;100778.22;;;20.32;60.25
79540;BME280;74475;52.122;5.406;2023-12-29T20:03:20;100772.03;;;20.30;60.43
79540;BME280;74475;52.122;5.406;2023-12-29T20:05:49;100768.69;;;20.27;60.49
79540;BME280;74475;52.122;5.406;2023-12-29T20:08:17;100783.34;;;20.26;60.22
79540;BME280;74475;52.122;5.406;2023-12-29T20:10:44;100777.16;;;20.24;60.46
79540;BME280;74475;52.122;5.406;2023-12-29T20:13:11;100782.63;;;20.24;60.58
79540;BME280;74475;52.122;5.406;2023-12-29T20:15:38;100792.81;;;20.22;60.47
79540;BME280;74475;52.122;5.406;2023-12-29T20:18:05;100783.91;;;20.20;60.60
79540;BME280;74475;52.122;5.406;2023-12-29T20:20:32;100784.06;;;20.18;60.51
79540;BME280;74475;52.122;5.406;2023-12-29T20:22:59;100788.78;;;20.16;60.67
79540;BME280;74475;52.122;5.406;2023-12-29T20:25:26;100791.66;;;20.15;60.21
79540;BME280;74475;52.122;5.406;2023-12-29T20:27:53;100789.91;;;20.14;60.25
79540;BME280;74475;52.122;5.406;2023-12-29T20:30:19;100800.97;;;20.12;60.35
79540;BME280;74475;52.122;5.406;2023-12-29T20:32:46;100790.22;;;20.11;60.30
79540;BME280;74475;52.122;5.406;2023-12-29T20:35:12;100787.47;;;20.11;60.52
79540;BME280;74475;52.122;5.406;2023-12-29T20:37:40;100784.88;;;20.09;60.49
79540;BME280;74475;52.122;5.406;2023-12-29T20:40:07;100792.19;;;20.09;60.18
79540;BME280;74475;52.122;5.406;2023-12-29T20:42:34;100804.25;;;20.06;60.56
79540;BME280;74475;52.122;5.406;2023-12-29T20:45:00;100817.19;;;20.04;59.93
79540;BME280;74475;52.122;5.406;2023-12-29T20:47:27;100836.28;;;20.04;60.43
79540;BME280;74475;52.122;5.406;2023-12-29T20:49:54;100892.88;;;20.02;60.47
79540;BME280;74475;52.122;5.406;2023-12-29T20:52:20;100847.63;;;20.00;59.96
79540;BME280;74475;52.122;5.406;2023-12-29T20:54:47;100838.72;;;19.98;60.23
79540;BME280;74475;52.122;5.406;2023-12-29T20:57:13;100840.69;;;19.96;60.77
79540;BME280;74475;52.122;5.406;2023-12-29T20:59:40;100849.88;;;19.95;60.42
79540;BME280;74475;52.122;5.406;2023-12-29T21:02:07;100831.81;;;19.94;60.25
79540;BME280;74475;52.122;5.406;2023-12-29T21:04:34;100825.59;;;19.92;60.52
79540;BME280;74475;52.122;5.406;2023-12-29T21:07:01;100833.06;;;19.90;60.26
79540;BME280;74475;52.122;5.406;2023-12-29T21:09:27;100841.53;;;19.86;60.23
79540;BME280;74475;52.122;5.406;2023-12-29T21:11:54;100843.66;;;19.83;60.27
79540;BME280;74475;52.122;5.406;2023-12-29T21:14:20;100862.88;;;19.81;60.24
79540;BME280;74475;52.122;5.406;2023-12-29T21:16:50;100876.69;;;19.80;60.28
79540;BME280;74475;52.122;5.406;2023-12-29T21:19:16;100882.25;;;19.78;60.67
79540;BME280;74475;52.122;5.406;2023-12-29T21:21:43;100889.72;;;19.76;60.18
79540;BME280;74475;52.122;5.406;2023-12-29T21:24:13;100865.28;;;19.75;60.42
79540;BME280;74475;52.122;5.406;2023-12-29T21:26:39;100865.41;;;19.73;60.59
79540;BME280;74475;52.122;5.406;2023-12-29T21:29:06;100847.47;;;19.71;60.37
79540;BME280;74475;52.122;5.406;2023-12-29T21:31:33;100837.69;;;19.68;60.64
79540;BME280;74475;52.122;5.406;2023-12-29T21:34:01;100833.22;;;19.67;60.56
79540;BME280;74475;52.122;5.406;2023-12-29T21:36:29;100839.81;;;19.65;60.52
79540;BME280;74475;52.122;5.406;2023-12-29T21:38:57;100828.16;;;19.63;60.49
79540;BME280;74475;52.122;5.406;2023-12-29T21:41:24;100838.25;;;19.62;60.82
79540;BME280;74475;52.122;5.406;2023-12-29T21:43:52;100839.34;;;19.60;60.70
79540;BME280;74475;52.122;5.406;2023-12-29T21:46:19;100836.78;;;19.58;60.99
79540;BME280;74475;52.122;5.406;2023-12-29T21:48:47;100842.22;;;19.58;60.65
79540;BME280;74475;52.122;5.406;2023-12-29T21:51:16;100837.16;;;19.54;60.69
79540;BME280;74475;52.122;5.406;2023-12-29T21:53:42;100831.84;;;19.52;60.96
79540;BME280;74475;52.122;5.406;2023-12-29T21:56:09;100843.75;;;19.51;60.85
79540;BME280;74475;52.122;5.406;2023-12-29T21:58:36;100846.75;;;19.48;61.03
79540;BME280;74475;52.122;5.406;2023-12-29T22:01:31;100854.19;;;19.46;61.02
79540;BME280;74475;52.122;5.406;2023-12-29T22:04:00;100858.66;;;19.47;61.13
